Time;durP1;ratioP1;P1;durP2;ratioP2;P2;SDS_P1;SDS_P2;PMS_P1;PMS_P2;Temp;Humidity;BMP_temperature;BMP_pressure;BME280_temperature;BME280_humidity;BME280_pressure;Samples;Min_cycle;Max_cycle;Signal;HPM_P1;HPM_P2
2023/04/06 00:02:30;;;;;;;190.20;93.60;;;;;;;-2.39;72.63;100842.89;124125;1319;114871;-68
2023/04/06 00:11:04;;;;;;;180.90;94.40;;;;;;;-2.46;72.73;100843.68;125639;1301;639460;-67
2023/04/06 00:15:09;;;;;;;180.40;88.80;;;;;;;-2.51;72.98;100848.88;127331;1298;128728;-66
2023/04/06 00:19:12;;;;;;;185.10;88.40;;;;;;;-2.48;74.27;100851.88;126810;1292;115599;-67
2023/04/06 00:23:13;;;;;;;147.20;73.00;;;;;;;-2.46;73.82;100849.79;121424;1305;5691545;-66
2023/04/06 00:39:53;;;;;;;189.90;90.40;;;;;;;-2.49;73.87;100844.54;126191;1297;115311;-68
2023/04/06 00:52:26;;;;;;;191.40;92.10;;;;;;;-2.58;73.71;100838.11;127521;1287;128857;-68
2023/04/06 00:56:28;;;;;;;189.40;87.70;;;;;;;-2.62;73.92;100837.54;127009;1308;116420;-69
2023/04/06 01:00:29;;;;;;;178.70;85.40;;;;;;;-2.64;74.12;100839.77;122283;1300;5441471;-70
2023/04/06 01:17:03;;;;;;;177.00;85.70;;;;;;;-2.77;73.52;100837.15;126551;1295;115377;-67
2023/04/06 01:24:46;;;;;;;161.00;82.10;;;;;;;-2.81;73.49;100835.88;125202;1310;114935;-69
2023/04/06 01:33:14;;;;;;;;;;;;;;;;;;;;;
2023/04/06 01:37:11;;;;;;;122.20;67.00;;;;;;;-2.81;74.17;100830.64;127841;1287;128001;-69
2023/04/06 01:40:43;;;;;;;;;;;;;;;;;;;;;
2023/04/06 01:52:52;;;;;;;119.10;59.10;;;;;;;-2.82;74.39;100828.71;125619;1322;115100;-69
2023/04/06 02:05:30;;;;;;;101.00;54.10;;;;;;;-2.73;74.89;100829.88;127813;1303;127865;-68
2023/04/06 02:09:32;;;;;;;97.30;54.60;;;;;;;-2.74;75.32;100831.44;126601;1312;115327;-67
2023/04/06 02:22:09;;;;;;;103.20;55.80;;;;;;;-2.75;75.32;100823.73;125701;1304;638611;-68
2023/04/06 02:26:11;;;;;;;90.40;47.60;;;;;;;-2.78;75.77;100823.52;126531;1311;128079;-68
2023/04/06 02:30:14;;;;;;;92.10;49.20;;;;;;;-2.79;76.18;100827.19;126825;1292;115304;-67
2023/04/06 02:34:18;;;;;;;96.80;50.60;;;;;;;-2.81;75.75;100827.32;122474;1298;5437097;-68
2023/04/06 02:46:48;;;;;;;92.40;52.50;;;;;;;-2.83;75.56;100834.45;125677;1304;640037;-68
2023/04/06 02:50:50;;;;;;;110.70;56.90;;;;;;;-2.88;75.32;100837.71;126664;1292;128876;-66
2023/04/06 02:58:52;;;;;;;103.70;57.40;;;;;;;-2.92;75.40;100842.38;121720;1313;5433994;-68
2023/04/06 03:07:27;;;;;;;95.80;55.00;;;;;;;-2.97;74.87;100847.73;125632;1302;639836;-68
2023/04/06 03:11:30;;;;;;;88.40;51.20;;;;;;;-3.02;75.04;100847.29;127060;1290;127897;-68
2023/04/06 03:19:36;;;;;;;83.40;46.70;;;;;;;-3.11;75.20;100853.45;122077;1302;5451354;-68
2023/04/06 03:28:09;;;;;;;85.80;46.80;;;;;;;-3.15;75.39;100854.97;125990;1304;636214;-69
2023/04/06 03:32:11;;;;;;;83.00;44.70;;;;;;;-3.21;74.89;100859.59;127207;1308;127712;-68
2023/04/06 03:36:12;;;;;;;78.00;43.10;;;;;;;-3.25;74.95;100867.04;125851;1319;115388;-68
2023/04/06 03:39:33;;;;;;;84.20;45.70;;;;;;;-3.29;75.14;100867.67;121443;1306;5427943;-67
2023/04/06 03:43:35;;;;;;;79.20;44.20;;;;;;;-3.32;74.91;100869.20;125041;1315;114887;-67
2023/04/06 03:46:58;;;;;;;87.90;48.40;;;;;;;-3.38;74.97;100871.36;124422;1314;114987;-68
2023/04/06 03:54:54;;;;;;;;;;;;;;;;;;;;;
2023/04/06 03:58:58;;;;;;;121.50;60.90;;;;;;;-3.49;74.75;100875.55;128735;1273;126284;-68
2023/04/06 04:02:54;;;;;;;126.70;59.70;;;;;;;-3.54;74.57;100876.34;128360;1281;116290;-68
2023/04/06 04:06:56;;;;;;;132.90;62.90;;;;;;;-3.58;74.76;100884.98;128027;1285;116371;-68
2023/04/06 04:10:58;;;;;;;124.50;60.40;;;;;;;-3.65;74.63;100883.83;122969;1311;114968;-69
2023/04/06 04:14:58;;;;;;;130.40;60.60;;;;;;;-3.68;74.68;100891.79;126180;1299;114820;-69
2023/04/06 04:19:00;;;;;;;123.20;59.40;;;;;;;-3.72;74.40;100889.97;125445;1324;114933;-69
2023/04/06 04:27:35;;;;;;;117.70;60.90;;;;;;;-3.76;74.56;100884.48;125667;1298;640898;-69
2023/04/06 04:31:21;;;;;;;112.50;57.10;;;;;;;-3.78;74.66;100883.75;127758;1300;128901;-68
2023/04/06 04:35:25;;;;;;;117.80;59.50;;;;;;;-3.78;74.82;100880.79;127801;1281;115005;-69
2023/04/06 04:39:28;;;;;;;128.50;61.70;;;;;;;-3.76;75.23;100883.11;122926;1290;5507561;-69
2023/04/06 04:43:29;;;;;;;123.40;61.40;;;;;;;-3.72;74.87;100881.59;126287;1294;114950;-69
2023/04/06 04:47:31;;;;;;;116.00;60.00;;;;;;;-3.67;75.36;100884.84;125861;1302;114855;-69
2023/04/06 04:51:24;;;;;;;;;;;;;;;;;;;;;
2023/04/06 05:00:01;;;;;;;133.00;69.70;;;;;;;-3.36;75.86;100886.60;125740;1312;639331;-69
2023/04/06 05:04:03;;;;;;;121.10;63.50;;;;;;;-3.22;75.92;100890.30;126886;1290;126478;-70
2023/04/06 05:08:05;;;;;;;113.50;60.50;;;;;;;-3.09;75.77;100885.81;125909;1302;115788;-66
2023/04/06 05:12:06;;;;;;;104.20;57.10;;;;;;;-2.94;75.72;100889.01;121714;1320;5415671;-68
2023/04/06 05:24:43;;;;;;;107.60;55.40;;;;;;;-2.48;76.38;100894.71;128266;1281;129022;-69
2023/04/06 05:28:02;;;;;;;;;;;;;;;;;;;;;
2023/04/06 05:32:06;;;;;;;90.00;47.40;;;;;;;-2.21;76.37;100903.99;127746;1286;114838;-70
2023/04/06 05:36:07;;;;;;;;;;;;;;;;;;;;;
2023/04/06 05:44:01;;;;;;;71.70;41.10;;;;;;;-1.70;76.46;100898.45;125012;1324;114948;-68
2023/04/06 05:52:27;;;;;;;133.30;77.10;;;;;;;-1.31;76.18;100899.17;125343;1299;637587;-69
2023/04/06 05:56:31;;;;;;;97.70;52.40;;;;;;;-1.10;76.10;100894.79;127640;1284;128773;-67
2023/04/06 06:00:33;;;;;;;96.40;51.30;;;;;;;-0.88;76.04;100894.08;126534;1308;116446;-69
2023/04/06 06:04:35;;;;;;;;;;;;;;;;;;;;;
2023/04/06 06:08:30;;;;;;;85.30;47.00;;;;;;;-0.37;75.71;100888.23;124825;1308;114815;-69
2023/04/06 06:17:04;;;;;;;87.40;50.40;;;;;;;0.18;75.06;100891.07;125353;1303;638544;-66
2023/04/06 06:21:00;;;;;;;;;;;;;;;;;;;;;
2023/04/06 06:25:02;;;;;;;94.30;43.30;;;;;;;0.89;75.24;100886.94;126883;1288;114853;-69
2023/04/06 06:32:45;;;;;;;;;;;;;;;;;;;;;
2023/04/06 06:36:22;;;;;;;;;;;;;;;;;;;;;
2023/04/06 06:40:16;;;;;;;;;;;;;;;;;;;;;
2023/04/06 06:44:51;;;;;;;67.60;34.60;;;;;;;3.47;72.35;100877.59;125713;1305;637922;-68
2023/04/06 06:48:54;;;;;;;53.90;31.60;;;;;;;3.94;71.55;100870.85;128561;1277;128694;-70
2023/04/06 06:52:46;;;;;;;;;;;;;;;;;;;;;
2023/04/06 06:56:50;;;;;;;64.30;34.10;;;;;;;4.78;70.25;100863.78;122345;1318;5439297;-71
2023/04/06 07:00:51;;;;;;;57.60;33.10;;;;;;;5.07;69.33;100862.77;125047;1318;114897;-72
2023/04/06 07:09:26;;;;;;;57.40;36.30;;;;;;;5.78;67.93;100868.68;125672;1312;638961;-66
2023/04/06 07:13:29;;;;;;;66.00;39.50;;;;;;;6.06;67.28;100870.08;127358;1308;127985;-67
2023/04/06 07:16:50;;;;;;;;;;;;;;;;;;;;;
2023/04/06 07:20:51;;;;;;;;;;;;;;;;;;;;;
2023/04/06 07:25:15;;;;;;;60.70;35.60;;;;;;;6.79;64.53;100879.77;125879;1295;639812;-65
2023/04/06 07:29:18;;;;;;;52.40;31.50;;;;;;;6.85;64.16;100886.20;128118;1278;129062;-61
2023/04/06 07:33:21;;;;;;;62.60;37.80;;;;;;;7.06;63.31;100883.73;126463;1287;115340;-62
2023/04/06 07:37:41;;;;;;;53.60;34.20;;;;;;;7.23;62.75;100880.79;121520;1315;5444077;-61
2023/04/06 07:41:20;;;;;;;38.40;23.00;;;;;;;7.62;62.40;100881.14;125425;1307;116360;-60
2023/04/06 07:45:20;;;;;;;37.70;22.30;;;;;;;7.94;61.28;100881.69;124092;1326;114941;-62
2023/04/06 07:53:46;;;;;;;44.90;24.50;;;;;;;9.06;58.70;100878.01;125284;1308;636712;-63
2023/04/06 07:57:48;;;;;;;31.20;17.80;;;;;;;9.40;58.45;100872.02;127075;1287;128940;-62
2023/04/06 08:01:52;;;;;;;28.10;16.00;;;;;;;9.83;57.98;100868.88;126767;1298;115272;-64
2023/04/06 08:05:56;;;;;;;37.80;22.70;;;;;;;10.38;57.77;100864.28;122029;1293;5623452;-62
2023/04/06 08:09:46;;;;;;;38.00;22.60;;;;;;;10.73;55.84;100868.80;124473;1319;115346;-62
2023/04/06 08:13:48;;;;;;;51.80;28.90;;;;;;;10.86;55.51;100864.86;123704;1331;114946;-62
2023/04/06 08:22:01;;;;;;;;;;;;;;;;;;;;;
2023/04/06 08:26:05;;;;;;;23.60;13.70;;;;;;;11.31;51.74;100862.27;127960;1280;128894;-61
2023/04/06 08:30:10;;;;;;;28.00;15.30;;;;;;;11.13;51.00;100861.23;126752;1291;115362;-62
2023/04/06 08:42:03;;;;;;;21.10;11.30;;;;;;;11.26;50.65;100862.14;124884;1326;114895;-61
2023/04/06 08:50:29;;;;;;;16.20;10.40;;;;;;;10.63;48.27;100858.48;125788;1304;635925;-60
2023/04/06 08:58:25;;;;;;;;;;;;;;;;;;;;;
2023/04/06 09:02:40;;;;;;;;;;;;;;;;;;;;;
2023/04/06 09:06:41;;;;;;;;;;;;;;;;;;;;;
2023/04/06 09:10:43;;;;;;;15.60;7.90;;;;;;;9.18;47.10;100863.52;124738;1326;114915;-60
2023/04/06 09:14:05;;;;;;;13.90;8.60;;;;;;;8.99;46.86;100860.63;123382;1340;115005;-62
2023/04/06 09:17:09;;;;;;;12.50;8.10;;;;;;;8.93;46.50;100855.84;123364;1335;128188;-62
2023/04/06 09:20:53;;;;;;;12.90;7.60;;;;;;;8.92;47.04;100850.34;123294;1340;116600;-62
2023/04/06 09:24:36;;;;;;;;;;;;;;;;;;;;;
2023/04/06 09:33:12;;;;;;;;;;;;;;;;;;;;;
2023/04/06 09:37:17;;;;;;;16.00;9.30;;;;;;;9.54;46.98;100841.95;127736;1282;128325;-60
2023/04/06 09:45:43;;;;;;;16.50;10.80;;;;;;;9.51;45.76;100840.98;121873;1301;5456747;-61
2023/04/06 09:49:05;;;;;;;16.00;9.90;;;;;;;9.46;45.79;100840.27;125238;1323;115469;-61
2023/04/06 09:52:17;;;;;;;18.30;9.90;;;;;;;9.47;46.87;100835.05;124732;1310;115155;-61
2023/04/06 09:55:46;;;;;;;11.10;7.70;;;;;;;9.54;45.98;100830.00;124439;1313;114929;-61
2023/04/06 09:59:30;;;;;;;19.10;11.00;;;;;;;9.46;46.17;100829.73;124625;1321;129882;-61
2023/04/06 10:03:27;;;;;;;15.70;9.50;;;;;;;9.36;45.68;100831.52;123590;1322;116452;-61
2023/04/06 10:11:37;;;;;;;12.00;8.30;;;;;;;9.07;45.25;100826.32;126299;1305;636764;-61
2023/04/06 10:15:19;;;;;;;13.90;7.90;;;;;;;8.94;44.77;100823.56;128495;1277;127857;-62
2023/04/06 10:19:23;;;;;;;13.50;6.90;;;;;;;8.70;43.75;100822.02;127527;1284;115308;-62
2023/04/06 10:23:20;;;;;;;15.70;7.70;;;;;;;8.60;44.59;100823.64;127359;1300;114852;-62
2023/04/06 10:27:13;;;;;;;;;;;;;;;;;;;;;
2023/04/06 10:30:55;;;;;;;10.20;6.10;;;;;;;8.53;43.11;100823.67;127218;1303;114942;-61
2023/04/06 10:34:40;;;;;;;14.00;7.60;;;;;;;8.25;43.61;100817.92;126028;1298;114983;-61
2023/04/06 10:38:12;;;;;;;12.10;7.20;;;;;;;8.31;44.27;100814.36;125731;1301;129782;-60
2023/04/06 10:42:35;;;;;;;12.70;8.10;;;;;;;8.37;44.43;100811.86;125692;1301;115281;-60
2023/04/06 10:46:37;;;;;;;12.40;8.40;;;;;;;8.38;43.99;100815.40;124780;1321;115906;-61
2023/04/06 10:50:06;;;;;;;13.30;8.30;;;;;;;8.29;44.71;100808.39;124406;1328;115183;-62
2023/04/06 10:54:08;;;;;;;8.70;6.40;;;;;;;8.45;44.82;100798.12;124451;1328;114978;-60
2023/04/06 10:57:36;;;;;;;14.10;8.20;;;;;;;8.62;44.28;100803.63;124651;1309;129939;-62
2023/04/06 11:01:29;;;;;;;;;;;;;;;;;;;;;
2023/04/06 11:05:37;;;;;;;14.30;8.70;;;;;;;8.66;43.10;100794.59;123791;1331;115012;-61
2023/04/06 11:09:29;;;;;;;14.90;9.40;;;;;;;8.47;43.92;100796.78;123772;1332;115225;-62
2023/04/06 11:13:18;;;;;;;11.10;7.10;;;;;;;8.37;43.06;100798.01;124237;1329;114997;-61
2023/04/06 11:17:09;;;;;;;13.90;8.90;;;;;;;8.23;43.11;100796.30;123546;1319;129826;-60
2023/04/06 11:20:29;;;;;;;19.30;11.00;;;;;;;8.14;43.02;100781.98;123929;1317;114897;-61
2023/04/06 11:23:30;;;;;;;17.00;9.40;;;;;;;8.16;43.92;100783.15;123914;1331;114996;-61
2023/04/06 11:27:31;;;;;;;;;;;;;;;;;;;;;
2023/04/06 11:31:33;;;;;;;16.20;10.90;;;;;;;8.27;43.25;100770.39;124883;1323;115278;-64
2023/04/06 11:35:35;;;;;;;15.40;10.50;;;;;;;8.35;43.48;100768.51;124072;1313;114849;-66
2023/04/06 11:39:36;;;;;;;18.40;10.50;;;;;;;8.35;43.61;100765.29;124774;1319;128963;-65
2023/04/06 11:48:14;;;;;;;14.90;10.60;;;;;;;8.42;43.52;100760.10;126129;1305;637108;-70
2023/04/06 11:51:59;;;;;;;;;;;;;;;;;;;;;
2023/04/06 11:55:54;;;;;;;15.60;10.70;;;;;;;8.41;43.05;100753.90;127764;1284;115438;-70
2023/04/06 11:59:58;;;;;;;14.80;11.00;;;;;;;8.34;43.70;100754.98;123457;1287;5431250;-72
2023/04/06 12:03:59;;;;;;;14.60;10.20;;;;;;;8.35;43.32;100744.82;126055;1309;114884;-66
2023/04/06 12:08:01;;;;;;;17.30;10.40;;;;;;;8.34;43.60;100742.20;125179;1302;114893;-70
2023/04/06 12:20:26;;;;;;;18.30;10.30;;;;;;;8.41;43.53;100721.34;127822;1290;130034;-68
2023/04/06 12:24:28;;;;;;;19.10;11.60;;;;;;;8.45;44.06;100715.67;127092;1303;115710;-66
2023/04/06 12:28:32;;;;;;;15.00;10.50;;;;;;;8.44;43.50;100716.58;121843;1307;5467218;-68
2023/04/06 12:32:34;;;;;;;15.30;10.40;;;;;;;8.42;43.52;100716.48;124956;1311;115062;-65
2023/04/06 12:41:03;;;;;;;17.00;10.40;;;;;;;8.39;43.03;100696.66;125611;1297;638736;-67
2023/04/06 12:44:47;;;;;;;15.20;8.90;;;;;;;8.29;42.96;100695.02;127240;1288;128980;-71
2023/04/06 12:48:43;;;;;;;13.70;9.70;;;;;;;8.20;43.19;100696.38;127313;1286;115331;-69
2023/04/06 12:52:31;;;;;;;14.30;8.90;;;;;;;8.15;43.03;100686.77;127173;1297;115182;-66
2023/04/06 12:56:18;;;;;;;14.00;7.90;;;;;;;8.12;43.39;100691.48;123904;1281;115042;-68
2023/04/06 13:00:21;;;;;;;12.00;7.80;;;;;;;8.11;42.98;100685.11;127402;1286;115207;-70
2023/04/06 13:04:10;;;;;;;10.10;7.10;;;;;;;8.16;43.05;100682.48;126061;1298;114858;-69
2023/04/06 13:16:48;;;;;;;10.70;7.50;;;;;;;8.23;42.34;100663.70;125343;1308;638514;-69
2023/04/06 13:20:51;;;;;;;13.20;7.60;;;;;;;8.23;42.76;100666.41;127308;1286;128948;-68
2023/04/06 13:24:46;;;;;;;;;;;;;;;;;;;;;
2023/04/06 13:32:48;;;;;;;10.70;8.50;;;;;;;8.22;42.63;100652.55;123988;1316;115261;-68
2023/04/06 13:41:02;;;;;;;10.50;7.80;;;;;;;8.45;42.87;100648.02;125411;1303;638605;-71
2023/04/06 13:44:53;;;;;;;;;;;;;;;;;;;;;
2023/04/06 13:48:56;;;;;;;18.00;10.10;;;;;;;8.50;42.18;100650.38;127197;1297;115455;-68
2023/04/06 13:53:04;;;;;;;11.30;8.30;;;;;;;8.36;42.33;100649.05;124981;1299;5712269;-69
2023/04/06 13:57:07;;;;;;;14.00;9.00;;;;;;;8.22;41.54;100644.72;125323;1316;114982;-66
2023/04/06 14:01:09;;;;;;;13.20;8.10;;;;;;;8.06;41.91;100654.16;125167;1321;115073;-70
2023/04/06 14:05:08;;;;;;;12.40;8.60;;;;;;;7.90;41.50;100652.19;125109;1324;129831;-64
2023/04/06 14:09:09;;;;;;;14.80;9.40;;;;;;;7.76;41.39;100647.12;125425;1305;115301;-67
2023/04/06 14:13:11;;;;;;;11.30;7.60;;;;;;;7.68;42.26;100644.91;124528;1327;114967;-64
2023/04/06 14:16:58;;;;;;;;;;;;;;;;;;;;;
2023/04/06 14:21:00;;;;;;;11.40;8.00;;;;;;;7.68;42.58;100636.70;124187;1310;115007;-65
2023/04/06 14:24:46;;;;;;;;;;;;;;;;;;;;;
2023/04/06 14:28:48;;;;;;;15.30;9.50;;;;;;;7.97;43.06;100628.67;123928;1319;116597;-66
2023/04/06 14:36:46;;;;;;;;;;;;;;;;;;;;;
2023/04/06 14:49:20;;;;;;;19.20;10.60;;;;;;;8.29;42.27;100615.47;128255;1290;128117;-71
2023/04/06 14:53:22;;;;;;;11.50;7.80;;;;;;;8.31;41.76;100619.31;127350;1287;115259;-71
2023/04/06 15:00:58;;;;;;;;;;;;;;;;;;;;;
2023/04/06 15:05:01;;;;;;;10.50;7.10;;;;;;;8.50;41.96;100610.84;125689;1299;115042;-64
2023/04/06 15:08:04;;;;;;;10.00;7.60;;;;;;;8.52;42.27;100609.73;125244;1308;128023;-70
2023/04/06 15:12:06;;;;;;;14.60;7.50;;;;;;;8.52;41.51;100606.52;125051;1321;114988;-69
2023/04/06 15:20:18;;;;;;;18.00;8.10;;;;;;;8.49;41.58;100601.98;126022;1296;639692;-67
2023/04/06 15:23:33;;;;;;;12.80;8.80;;;;;;;8.49;42.11;100600.39;128798;1276;128698;-70
2023/04/06 15:27:17;;;;;;;12.80;8.80;;;;;;;8.54;41.89;100593.44;129680;1257;115263;-67
2023/04/06 15:31:03;;;;;;;16.00;8.10;;;;;;;8.55;41.52;100601.80;129619;1268;114791;-71
2023/04/06 15:34:23;;;;;;;11.50;8.20;;;;;;;8.44;41.89;100599.29;128160;1277;376398;-64
2023/04/06 15:38:28;;;;;;;11.30;7.90;;;;;;;8.38;41.75;100600.02;128301;1296;114994;-67
2023/04/06 15:42:29;;;;;;;18.10;10.50;;;;;;;8.33;42.26;100593.64;127155;1290;129806;-70
2023/04/06 15:46:32;;;;;;;16.40;11.00;;;;;;;8.28;42.11;100596.66;126019;1300;114971;-71
2023/04/06 15:59:04;;;;;;;15.90;8.90;;;;;;;8.08;42.53;100589.52;126872;1293;128062;-71
2023/04/06 16:03:35;;;;;;;13.90;8.70;;;;;;;8.04;42.59;100590.02;127262;1289;115355;-68
2023/04/06 16:11:14;;;;;;;13.10;10.20;;;;;;;7.99;42.92;100589.48;125690;1305;114941;-71
2023/04/06 16:15:08;;;;;;;;;;;;;;;;;;;;;
2023/04/06 16:19:45;;;;;;;18.60;9.90;;;;;;;7.92;43.09;100586.84;126108;1297;637283;-68
2023/04/06 16:23:49;;;;;;;18.50;11.20;;;;;;;7.86;43.12;100586.53;128661;1278;128949;-68
2023/04/06 16:27:48;;;;;;;12.10;8.70;;;;;;;7.79;43.08;100586.08;127523;1286;116490;-69
2023/04/06 16:31:54;;;;;;;16.40;11.60;;;;;;;7.74;42.80;100589.95;123149;1286;5593459;-69
2023/04/06 16:35:58;;;;;;;15.10;9.70;;;;;;;7.68;43.12;100593.71;126501;1311;115284;-70
2023/04/06 16:40:00;;;;;;;14.20;9.50;;;;;;;7.64;43.33;100589.58;125250;1323;114945;-71
2023/04/06 16:48:33;;;;;;;14.90;10.40;;;;;;;7.58;43.65;100586.36;125437;1301;638924;-71
2023/04/06 16:52:37;;;;;;;17.00;12.00;;;;;;;7.55;43.55;100590.73;128086;1285;128889;-68
2023/04/06 16:56:41;;;;;;;21.30;12.10;;;;;;;7.52;43.64;100591.91;127260;1290;115498;-69
2023/04/06 17:00:42;;;;;;;27.80;15.20;;;;;;;7.44;43.82;100589.84;122123;1299;5388978;-69
2023/04/06 17:09:00;;;;;;;;;;;;;;;;;;;;;
2023/04/06 17:12:54;;;;;;;24.10;14.30;;;;;;;7.20;44.35;100595.21;128858;1270;129257;-70
2023/04/06 17:16:57;;;;;;;20.60;13.40;;;;;;;7.13;44.78;100600.75;129119;1271;114775;-69
2023/04/06 17:20:59;;;;;;;18.30;11.80;;;;;;;7.04;44.41;100599.61;123750;1299;5440084;-71
2023/04/06 17:25:04;;;;;;;21.80;13.00;;;;;;;6.95;44.82;100597.04;126390;1289;114864;-71
2023/04/06 17:29:04;;;;;;;18.10;12.30;;;;;;;6.87;44.97;100597.96;125739;1319;116742;-63
2023/04/06 17:33:06;;;;;;;24.10;14.70;;;;;;;6.78;45.09;100596.44;124776;1310;129156;-69
2023/04/06 17:36:31;;;;;;;34.00;20.40;;;;;;;6.72;45.12;100603.03;123751;1319;115474;-64
2023/04/06 17:39:41;;;;;;;23.50;14.20;;;;;;;6.65;45.21;100600.56;124117;1319;115016;-68
2023/04/06 17:42:42;;;;;;;26.80;14.30;;;;;;;6.59;45.19;100603.92;123909;1336;114934;-66
2023/04/06 17:50:56;;;;;;;20.70;12.80;;;;;;;6.50;45.78;100607.38;127285;1283;635054;-66
2023/04/06 17:54:42;;;;;;;36.60;21.20;;;;;;;6.44;45.71;100611.63;128389;1278;127711;-67
2023/04/06 17:58:44;;;;;;;25.80;15.20;;;;;;;6.39;45.77;100609.42;127818;1295;114902;-66
2023/04/06 18:02:48;;;;;;;24.90;15.10;;;;;;;6.34;46.09;100613.31;125125;1283;5458123;-69
2023/04/06 18:06:50;;;;;;;32.80;20.70;;;;;;;6.30;46.01;100617.32;126489;1293;114891;-65
2023/04/06 18:10:44;;;;;;;29.30;18.20;;;;;;;6.25;46.41;100617.80;126084;1293;114961;-68
2023/04/06 18:14:44;;;;;;;36.70;20.70;;;;;;;6.21;46.56;100622.50;125929;1316;129850;-65
2023/04/06 18:18:44;;;;;;;25.90;13.90;;;;;;;6.17;46.57;100621.73;126143;1298;115396;-70
2023/04/06 18:22:45;;;;;;;18.10;11.30;;;;;;;6.13;46.90;100622.73;125444;1304;114766;-66
2023/04/06 18:26:36;;;;;;;;;;;;;;;;;;;;;
2023/04/06 18:35:05;;;;;;;24.60;14.80;;;;;;;6.01;47.26;100627.96;126019;1308;636551;-70
2023/04/06 18:39:06;;;;;;;25.30;14.90;;;;;;;5.94;47.46;100628.85;126642;1300;127958;-66
2023/04/06 18:43:10;;;;;;;21.00;14.80;;;;;;;5.89;47.67;100633.39;126378;1299;115266;-68
2023/04/06 18:47:11;;;;;;;;;;;;;;;;;;;;;
2023/04/06 18:51:13;;;;;;;24.80;15.20;;;;;;;5.79;47.77;100636.13;123972;1316;114991;-71
2023/04/06 18:59:33;;;;;;;;;;;;;;;;;;;;;
2023/04/06 19:03:38;;;;;;;28.10;16.90;;;;;;;5.75;48.44;100636.39;127806;1283;128742;-71
2023/04/06 19:07:41;;;;;;;34.30;20.20;;;;;;;5.75;48.69;100638.86;127364;1283;115509;-71
2023/04/06 19:11:43;;;;;;;37.20;20.10;;;;;;;5.75;48.59;100637.09;122808;1286;5449088;-72
2023/04/06 19:15:45;;;;;;;33.70;20.30;;;;;;;5.73;48.77;100638.73;126251;1292;115075;-70
2023/04/06 19:19:47;;;;;;;35.80;21.50;;;;;;;5.71;48.84;100636.67;125214;1307;114879;-66
2023/04/06 19:23:48;;;;;;;34.80;20.30;;;;;;;5.68;48.77;100635.84;124628;1310;115165;-70
2023/04/06 19:32:24;;;;;;;28.70;18.00;;;;;;;5.65;48.93;100638.21;125531;1305;638042;-69
2023/04/06 19:40:30;;;;;;;26.10;16.50;;;;;;;5.58;49.35;100631.13;126334;1296;115345;-70
2023/04/06 19:44:32;;;;;;;22.20;15.60;;;;;;;5.54;49.67;100630.67;121848;1300;5464970;-66
2023/04/06 19:53:07;;;;;;;22.10;15.10;;;;;;;5.49;49.91;100625.30;125496;1319;638679;-67
2023/04/06 19:56:24;;;;;;;23.20;14.80;;;;;;;5.44;50.12;100626.48;127429;1295;129013;-69
2023/04/06 19:59:40;;;;;;;18.50;15.00;;;;;;;5.42;50.23;100623.52;127236;1288;115319;-66
2023/04/06 20:02:56;;;;;;;22.70;15.50;;;;;;;5.40;50.11;100619.15;127672;1298;114950;-65
2023/04/06 20:05:59;;;;;;;27.50;16.40;;;;;;;5.39;50.14;100621.65;128100;1280;379882;-66
2023/04/06 20:09:35;;;;;;;29.30;17.20;;;;;;;5.37;50.52;100621.34;128446;1280;114939;-68
2023/04/06 20:12:46;;;;;;;29.60;18.80;;;;;;;5.37;50.62;100622.94;128353;1276;127829;-68
2023/04/06 20:16:31;;;;;;;34.70;21.00;;;;;;;5.36;50.58;100621.38;128383;1278;114951;-67
2023/04/06 20:19:52;;;;;;;36.50;21.30;;;;;;;5.35;50.84;100620.16;128037;1283;114996;-67
2023/04/06 20:23:55;;;;;;;;;;;;;;;;;;;;;
2023/04/06 20:27:49;;;;;;;;;;;;;;;;;;;;;
2023/04/06 20:32:00;;;;;;;31.90;20.60;;;;;;;5.32;50.92;100615.95;125902;1298;130432;-67
2023/04/06 20:35:33;;;;;;;30.30;19.20;;;;;;;5.31;51.18;100621.63;126785;1291;115330;-71
2023/04/06 20:39:32;;;;;;;;;;;;;;;;;;;;;
2023/04/06 20:43:10;;;;;;;28.10;19.40;;;;;;;5.33;51.34;100613.09;126901;1292;115214;-70
2023/04/06 20:47:08;;;;;;;;;;;;;;;;;;;;;
2023/04/06 20:51:30;;;;;;;31.90;19.30;;;;;;;5.35;51.24;100610.23;126378;1295;129686;-72
2023/04/06 20:55:30;;;;;;;24.70;16.60;;;;;;;5.34;51.27;100608.65;126157;1305;115461;-70
2023/04/06 20:59:23;;;;;;;;;;;;;;;;;;;;;
2023/04/06 21:02:31;;;;;;;32.50;17.80;;;;;;;5.32;51.12;100600.73;125665;1301;114993;-67
2023/04/06 21:06:13;;;;;;;24.90;17.40;;;;;;;5.32;51.01;100598.95;126617;1295;114884;-65
2023/04/06 21:09:25;;;;;;;;;;;;;;;;;;;;;
2023/04/06 21:13:28;;;;;;;28.60;19.50;;;;;;;5.33;51.28;100593.44;126583;1294;116864;-68
2023/04/06 21:17:29;;;;;;;30.20;18.10;;;;;;;5.33;51.46;100589.52;126621;1298;114884;-70
2023/04/06 21:21:30;;;;;;;33.30;18.90;;;;;;;5.33;51.19;100591.13;126171;1307;114952;-68
2023/04/06 21:29:59;;;;;;;33.90;22.40;;;;;;;5.39;51.52;100592.77;125977;1295;638498;-67
2023/04/06 21:38:09;;;;;;;28.70;18.90;;;;;;;5.40;51.43;100583.89;126789;1293;114858;-69
2023/04/06 21:42:01;;;;;;;28.00;17.90;;;;;;;5.40;51.56;100581.25;122051;1301;5422210;-69
2023/04/06 21:46:02;;;;;;;26.70;18.00;;;;;;;5.40;51.74;100581.23;125572;1307;115020;-66
2023/04/06 21:54:37;;;;;;;26.60;18.00;;;;;;;5.42;51.74;100575.52;125577;1308;638488;-67
2023/04/06 21:58:38;;;;;;;;;;;;;;;;;;;;;
2023/04/06 22:06:43;;;;;;;28.40;18.00;;;;;;;5.38;51.72;100566.92;122025;1299;5409568;-72
2023/04/06 22:18:48;;;;;;;26.70;17.40;;;;;;;5.32;51.81;100561.05;124538;1314;115225;-69
2023/04/06 22:31:26;;;;;;;27.70;18.70;;;;;;;5.26;52.01;100555.52;127650;1286;128466;-70
2023/04/06 22:35:28;;;;;;;29.20;18.00;;;;;;;5.24;52.07;100558.76;126621;1305;116508;-68
2023/04/06 22:39:30;;;;;;;31.30;18.10;;;;;;;5.20;52.05;100560.45;121397;1304;5428319;-70
2023/04/06 22:43:29;;;;;;;;;;;;;;;;;;;;;
2023/04/06 23:03:54;;;;;;;26.60;13.70;;;;;;;4.75;55.22;100553.48;122121;1303;5429957;-68
2023/04/06 23:07:55;;;;;;;;;;;;;;;;;;;;;
2023/04/06 23:16:29;;;;;;;28.20;15.60;;;;;;;4.60;56.70;100557.86;125705;1302;637748;-67
2023/04/06 23:20:31;;;;;;;38.40;19.20;;;;;;;4.50;57.16;100558.77;127748;1286;128905;-67
2023/04/06 23:24:35;;;;;;;23.30;15.40;;;;;;;4.38;57.90;100555.45;126364;1291;115349;-68
2023/04/06 23:28:36;;;;;;;22.70;14.20;;;;;;;4.32;58.23;100554.52;121923;1302;5435167;-68
2023/04/06 23:37:23;;;;;;;;;;;;;;;;;;;;;
2023/04/06 23:49:15;;;;;;;22.10;13.80;;;;;;;4.06;60.47;100538.61;122085;1301;5431528;-67
2023/04/06 23:53:32;;;;;;;20.60;13.60;;;;;;;3.94;60.95;100537.04;125284;1310;115008;-67
